Time;durP1;ratioP1;P1;durP2;ratioP2;P2;SDS_P1;SDS_P2;PMS_P1;PMS_P2;Temp;Humidity;BMP_temperature;BMP_pressure;BME280_temperature;BME280_humidity;BME280_pressure;Samples;Min_cycle;Max_cycle;Signal;HPM_P1;HPM_P2
2021/01/06 00:01:02;;;;;;;7.30;4.00;;;;;;;1.11;100.00;100645.31;4972802;28;20038;-72
2021/01/06 00:03:29;;;;;;;7.70;3.80;;;;;;;1.11;100.00;100646.19;4968584;28;20070;-72
2021/01/06 00:06:01;;;;;;;9.23;4.00;;;;;;;1.13;100.00;100633.19;4966061;28;20043;-72
2021/01/06 00:08:28;;;;;;;5.70;3.47;;;;;;;1.11;100.00;100640.09;4969201;28;20066;-72
2021/01/06 00:10:56;;;;;;;6.70;3.63;;;;;;;1.08;100.00;100643.50;4987165;28;20077;-72
2021/01/06 00:13:23;;;;;;;6.57;3.50;;;;;;;1.08;100.00;100645.22;4967636;28;20031;-72
2021/01/06 00:15:50;;;;;;;7.50;3.93;;;;;;;1.06;100.00;100637.41;4969306;28;20140;-71
2021/01/06 00:18:16;;;;;;;6.27;3.93;;;;;;;1.10;100.00;100639.22;4969722;28;20065;-72
2021/01/06 00:20:43;;;;;;;5.60;2.73;;;;;;;1.10;100.00;100634.03;4985701;28;20121;-72
2021/01/06 00:23:09;;;;;;;6.63;3.13;;;;;;;1.09;100.00;100631.38;4971856;28;20129;-72
2021/01/06 00:25:41;;;;;;;6.90;3.00;;;;;;;1.05;100.00;100634.78;4953749;28;20045;-72
2021/01/06 00:28:09;;;;;;;5.67;3.03;;;;;;;1.03;100.00;100634.75;4984873;28;20034;-72
2021/01/06 00:30:40;;;;;;;6.60;3.10;;;;;;;1.04;100.00;100631.31;4972743;28;20064;-72
2021/01/06 00:33:10;;;;;;;6.03;2.90;;;;;;;1.02;100.00;100613.94;4985714;28;20042;-72
2021/01/06 00:35:36;;;;;;;4.70;2.60;;;;;;;1.03;100.00;100629.56;4987422;28;20092;-72
2021/01/06 00:38:03;;;;;;;4.87;3.30;;;;;;;1.00;100.00;100616.47;4969802;28;20522;-72
2021/01/06 00:40:31;;;;;;;5.40;2.53;;;;;;;0.96;100.00;100612.09;4987554;28;20415;-72
2021/01/06 00:42:59;;;;;;;5.53;2.93;;;;;;;0.97;100.00;100620.75;4984685;28;20042;-72
2021/01/06 00:45:25;;;;;;;5.03;2.60;;;;;;;0.97;100.00;100621.63;4973047;28;20141;-72
2021/01/06 00:47:52;;;;;;;5.30;3.00;;;;;;;0.95;100.00;100610.34;4966743;28;20697;-72
2021/01/06 00:50:23;;;;;;;5.03;2.63;;;;;;;1.00;100.00;100611.28;4965795;28;20089;-73
2021/01/06 00:52:49;;;;;;;5.97;2.97;;;;;;;0.99;100.00;100604.31;4957597;28;20062;-73
2021/01/06 00:55:16;;;;;;;6.33;2.73;;;;;;;0.96;100.00;100608.63;4970876;28;20054;-72
2021/01/06 00:57:42;;;;;;;4.60;2.57;;;;;;;0.96;100.00;100606.00;4952530;28;20479;-73
2021/01/06 01:00:17;;;;;;;5.13;2.60;;;;;;;0.94;100.00;100608.59;4957989;28;20149;-72
2021/01/06 01:02:50;;;;;;;3.87;2.10;;;;;;;0.93;100.00;100598.16;4969066;28;20523;-72
2021/01/06 01:05:21;;;;;;;;;;;;;;;0.90;100.00;100595.50;4973660;28;20121;-72
2021/01/06 01:07:48;;;;;;;4.10;2.17;;;;;;;0.89;100.00;100596.34;4967739;28;20383;-72
2021/01/06 01:10:42;;;;;;;4.30;2.60;;;;;;;0.89;100.00;100592.00;4967569;28;20468;-72
2021/01/06 01:13:19;;;;;;;2.50;1.80;;;;;;;0.86;100.00;100591.09;4966588;28;20507;-72
2021/01/06 01:15:47;;;;;;;3.80;2.00;;;;;;;0.84;100.00;100581.56;4969812;28;20050;-72
2021/01/06 01:18:16;;;;;;;4.40;1.83;;;;;;;0.86;100.00;100584.19;4949632;28;20108;-72
2021/01/06 01:20:44;;;;;;;3.03;1.90;;;;;;;0.83;100.00;100587.56;4953338;28;20046;-72
2021/01/06 01:23:11;;;;;;;4.30;2.30;;;;;;;0.83;100.00;100584.09;4987881;28;20092;-73
2021/01/06 01:25:38;;;;;;;3.73;2.03;;;;;;;0.84;100.00;100586.75;4970873;28;20066;-72
2021/01/06 01:28:05;;;;;;;3.13;1.93;;;;;;;0.84;100.00;100586.75;4953518;28;20054;-72
2021/01/06 01:30:31;;;;;;;3.70;2.10;;;;;;;0.94;100.00;100585.19;4970736;28;20117;-72
2021/01/06 01:32:57;;;;;;;2.33;1.50;;;;;;;0.87;100.00;100583.31;4993017;28;20053;-72
2021/01/06 01:35:26;;;;;;;3.00;1.70;;;;;;;0.82;100.00;100575.41;4988216;28;20472;-72
2021/01/06 01:37:52;;;;;;;2.77;1.90;;;;;;;0.83;100.00;100582.38;4965471;28;20085;-71
2021/01/06 01:40:29;;;;;;;3.80;2.07;;;;;;;0.80;100.00;100574.53;4987584;28;20061;-71
2021/01/06 01:42:58;;;;;;;3.23;1.60;;;;;;;0.86;100.00;100571.16;4985938;28;20046;-71
2021/01/06 01:45:33;;;;;;;3.83;2.17;;;;;;;0.86;100.00;100568.56;4972772;28;20038;-71
2021/01/06 01:48:12;;;;;;;2.23;1.40;;;;;;;0.82;100.00;100569.34;4970777;28;20075;-71
2021/01/06 01:50:38;;;;;;;3.57;1.67;;;;;;;0.81;100.00;100562.41;4969285;28;20035;-71
2021/01/06 01:53:08;;;;;;;2.57;1.60;;;;;;;0.79;100.00;100549.38;4987017;28;20061;-71
2021/01/06 01:55:34;;;;;;;2.53;1.57;;;;;;;0.79;100.00;100554.56;4985018;28;20042;-71
2021/01/06 01:58:05;;;;;;;2.77;1.43;;;;;;;0.83;100.00;100543.38;4977392;28;20038;-71
2021/01/06 02:00:35;;;;;;;3.00;1.80;;;;;;;0.79;100.00;100549.38;4971647;28;20093;-71
2021/01/06 02:03:23;;;;;;;3.10;1.30;;;;;;;0.77;100.00;100551.09;4969335;28;20038;-71
2021/01/06 02:05:57;;;;;;;3.20;1.77;;;;;;;0.79;100.00;100548.50;4969496;28;20097;-71
2021/01/06 02:08:26;;;;;;;4.00;2.00;;;;;;;0.76;100.00;100543.25;4967895;28;20458;-71
2021/01/06 02:10:58;;;;;;;2.67;1.60;;;;;;;0.77;100.00;100545.88;4970063;28;20096;-71
2021/01/06 02:13:38;;;;;;;3.70;1.83;;;;;;;0.77;100.00;100540.69;4970232;28;20487;-71
2021/01/06 02:16:18;;;;;;;2.77;1.10;;;;;;;0.77;100.00;100539.81;4969129;28;20599;-71
2021/01/06 02:18:44;;;;;;;2.37;1.40;;;;;;;0.77;100.00;100539.81;4969780;28;20053;-71
2021/01/06 02:21:13;;;;;;;2.53;1.40;;;;;;;0.74;100.00;100530.22;4968854;28;20049;-71
2021/01/06 02:23:41;;;;;;;2.00;1.50;;;;;;;0.75;100.00;100534.56;4969688;28;20038;-71
2021/01/06 02:26:07;;;;;;;2.13;1.10;;;;;;;0.74;100.00;100530.22;4969569;28;20039;-71
2021/01/06 02:28:34;;;;;;;2.33;1.17;;;;;;;0.71;100.00;100530.16;4968981;28;20133;-71
2021/01/06 02:31:00;;;;;;;2.30;1.20;;;;;;;0.68;100.00;100524.94;4970203;28;20034;-71
2021/01/06 02:33:27;;;;;;;3.63;1.70;;;;;;;0.66;100.00;100524.00;4968808;28;20050;-70
2021/01/06 02:35:54;;;;;;;2.03;1.20;;;;;;;0.68;100.00;100524.94;4969664;28;20066;-71
2021/01/06 02:38:21;;;;;;;1.90;0.90;;;;;;;0.67;100.00;100522.28;4968035;28;20100;-71
2021/01/06 02:40:47;;;;;;;1.50;1.10;;;;;;;0.68;100.00;100521.44;4952742;28;20118;-71
2021/01/06 02:43:13;;;;;;;1.00;0.70;;;;;;;0.64;100.00;100515.31;4979990;28;20057;-71
2021/01/06 02:45:39;;;;;;;1.40;0.90;;;;;;;0.67;100.00;100523.16;4986251;28;20745;-71
2021/01/06 02:48:06;;;;;;;1.77;1.00;;;;;;;0.61;100.00;100517.00;4983685;28;20093;-71
2021/01/06 02:50:34;;;;;;;1.37;0.90;;;;;;;0.61;100.00;100519.59;4985877;28;20035;-71
2021/01/06 02:53:08;;;;;;;1.80;1.00;;;;;;;0.59;100.00;100521.25;4982374;28;20070;-71
2021/01/06 02:55:36;;;;;;;1.15;0.63;;;;;;;0.56;100.00;100522.09;4973696;28;20044;-71
2021/01/06 02:58:09;;;;;;;1.57;0.73;;;;;;;0.55;100.00;100518.63;4968986;28;20077;-71
2021/01/06 03:00:36;;;;;;;1.13;0.77;;;;;;;0.54;100.00;100516.88;4967516;28;20503;-71
2021/01/06 03:03:07;;;;;;;0.90;0.70;;;;;;;0.53;100.00;100515.13;4985991;28;20042;-71
2021/01/06 03:05:38;;;;;;;0.93;0.60;;;;;;;0.51;100.00;100509.03;5006295;22;20111;-74
2021/01/06 03:08:07;;;;;;;1.30;0.53;;;;;;;0.52;100.00;100507.31;5003163;28;20318;-75
2021/01/06 03:10:33;;;;;;;2.33;0.90;;;;;;;0.49;100.00;100512.44;5010970;28;20642;-75
2021/01/06 03:12:59;;;;;;;1.73;0.60;;;;;;;0.47;100.00;100508.94;5001823;28;20045;-74
2021/01/06 03:15:27;;;;;;;1.00;0.80;;;;;;;0.46;100.00;100512.38;4991725;28;20096;-74
2021/01/06 03:17:54;;;;;;;1.33;0.50;;;;;;;0.43;100.00;100504.53;5005732;28;20065;-74
2021/01/06 03:20:39;;;;;;;1.47;0.47;;;;;;;0.42;100.00;100494.97;4972856;28;20034;-75
2021/01/06 03:23:27;;;;;;;0.70;0.35;;;;;;;0.41;100.00;100501.03;4996143;28;20112;-75
2021/01/06 03:25:55;;;;;;;0.83;0.70;;;;;;;0.40;100.00;100496.69;4987161;28;20046;-75
2021/01/06 03:28:21;;;;;;;0.73;0.50;;;;;;;0.37;100.00;100487.09;4988326;28;20758;-74
2021/01/06 03:30:48;;;;;;;0.63;0.50;;;;;;;0.39;100.00;100488.00;4992605;28;20041;-75
2021/01/06 03:33:18;;;;;;;0.60;0.43;;;;;;;0.35;100.00;100483.63;4992373;28;20084;-74
2021/01/06 03:35:48;;;;;;;0.47;0.30;;;;;;;0.31;100.00;100481.78;4992217;28;20116;-75
2021/01/06 03:38:15;;;;;;;0.70;0.47;;;;;;;0.29;100.00;100473.09;4988738;28;20038;-74
2021/01/06 03:40:43;;;;;;;1.00;0.33;;;;;;;0.29;100.00;100475.72;5003660;28;20046;-75
2021/01/06 03:43:10;;;;;;;0.57;0.50;;;;;;;0.24;100.00;100472.13;4971187;28;20522;-75
2021/01/06 03:45:41;;;;;;;0.57;0.47;;;;;;;0.21;100.00;100464.28;4994626;28;20050;-76
2021/01/06 03:48:25;;;;;;;0.57;0.40;;;;;;;0.20;100.00;100462.56;4992577;28;20092;-75
2021/01/06 03:50:55;;;;;;;1.88;0.40;;;;;;;0.15;100.00;100462.44;4990794;28;20085;-75
2021/01/06 03:53:33;;;;;;;0.40;0.30;;;;;;;0.13;100.00;100468.47;4991032;28;20034;-75
2021/01/06 03:56:01;;;;;;;0.40;0.30;;;;;;;0.11;100.00;100467.59;4991963;28;20092;-75
2021/01/06 03:58:59;;;;;;;0.27;0.23;;;;;;;0.10;100.00;100468.44;4991570;28;20034;-74
2021/01/06 04:01:48;;;;;;;0.30;0.27;;;;;;;0.07;100.00;100463.16;5001222;28;20034;-75
2021/01/06 04:04:31;;;;;;;0.67;0.30;;;;;;;0.05;100.00;100460.53;4977230;28;20109;-75
2021/01/06 04:06:59;;;;;;;0.50;0.37;;;;;;;0.03;100.00;100449.25;4992398;28;20081;-75
2021/01/06 04:09:49;;;;;;;0.50;0.40;;;;;;;0.02;100.00;100454.44;4973518;28;20395;-75
2021/01/06 04:12:17;;;;;;;0.70;0.40;;;;;;;-0.01;100.00;100453.50;5008160;28;20065;-75
2021/01/06 04:14:44;;;;;;;0.47;0.40;;;;;;;-0.03;100.00;100452.59;4972095;28;20038;-75
2021/01/06 04:17:29;;;;;;;0.83;0.50;;;;;;;-0.05;100.00;100438.72;4974579;28;20080;-75
2021/01/06 04:20:07;;;;;;;1.40;0.43;;;;;;;-0.06;100.00;100451.69;5004238;28;20034;-75
2021/01/06 04:22:39;;;;;;;0.70;0.47;;;;;;;-0.07;100.00;100437.81;5007705;28;20038;-75
2021/01/06 04:25:28;;;;;;;0.73;0.43;;;;;;;-0.08;100.00;100441.28;5009040;28;20046;-75
2021/01/06 04:28:04;;;;;;;1.10;0.50;;;;;;;-0.11;100.00;100432.53;4990474;28;20042;-75
2021/01/06 04:30:37;;;;;;;0.37;0.30;;;;;;;-0.11;100.00;100425.63;4990273;28;20038;-75
2021/01/06 04:33:07;;;;;;;0.63;0.40;;;;;;;-0.13;100.00;100426.44;4972843;28;20112;-75
2021/01/06 04:35:34;;;;;;;0.63;0.50;;;;;;;-0.17;100.00;100422.94;4985252;28;20538;-75
2021/01/06 04:38:00;;;;;;;0.30;0.30;;;;;;;-0.20;100.00;100429.75;4989765;28;20046;-75
2021/01/06 04:40:32;;;;;;;0.70;0.60;;;;;;;-0.20;100.00;100421.97;5002381;28;20025;-75
2021/01/06 04:43:04;;;;;;;0.63;0.50;;;;;;;-0.23;100.00;100422.81;4988798;28;20084;-75
2021/01/06 04:45:33;;;;;;;0.67;0.40;;;;;;;-0.26;100.00;100408.88;4990004;28;20663;-75
2021/01/06 04:48:29;;;;;;;0.47;0.47;;;;;;;-0.28;100.00;100412.31;4988858;28;20091;-75
2021/01/06 04:51:17;;;;;;;0.40;0.40;;;;;;;-0.25;100.00;100411.53;5001757;28;20034;-74
2021/01/06 04:54:04;;;;;;;0.60;0.47;;;;;;;-0.27;100.00;100408.00;5007052;28;20092;-75
2021/01/06 04:56:55;;;;;;;1.07;0.33;;;;;;;-0.30;100.00;100403.63;4991190;28;20041;-75
2021/01/06 04:59:51;;;;;;;2.10;0.30;;;;;;;-0.26;100.00;100394.16;4990834;28;20053;-75
2021/01/06 05:02:39;;;;;;;0.30;0.30;;;;;;;-0.28;100.00;100399.34;4991840;28;20067;-75
2021/01/06 05:06:01;;;;;;;0.07;0.07;;;;;;;-0.29;100.00;100395.00;4989353;28;20065;-75
2021/01/06 05:08:46;;;;;;;0.23;0.20;;;;;;;-0.30;100.00;100389.78;4921994;29;20074;-75
2021/01/06 05:11:21;;;;;;;0.33;0.23;;;;;;;-0.30;100.00;100382.00;4909029;29;20183;-75
2021/01/06 05:13:56;;;;;;;0.10;0.10;;;;;;;-0.27;100.00;100395.00;4970561;28;20054;-75
2021/01/06 05:16:37;;;;;;;0.50;0.23;;;;;;;-0.26;100.00;100388.97;4988611;28;20080;-75
2021/01/06 05:19:06;;;;;;;0.30;0.20;;;;;;;-0.28;100.00;100388.94;4983961;28;20033;-75
2021/01/06 05:21:33;;;;;;;0.20;0.20;;;;;;;-0.25;100.00;100385.56;4987255;28;20053;-74
2021/01/06 05:24:03;;;;;;;0.50;0.50;;;;;;;-0.26;100.00;100386.38;4988185;28;20041;-75
2021/01/06 05:26:29;;;;;;;0.47;0.30;;;;;;;-0.30;100.00;100384.59;4970687;28;20034;-75
2021/01/06 05:28:55;;;;;;;0.90;0.60;;;;;;;-0.30;100.00;100380.25;5003687;28;20038;-74
2021/01/06 05:31:21;;;;;;;0.30;0.30;;;;;;;-0.29;100.00;100378.53;5000032;28;20103;-74
2021/01/06 05:33:50;;;;;;;0.60;0.40;;;;;;;-0.32;100.00;100381.09;4968741;28;20451;-75
2021/01/06 05:36:25;;;;;;;0.53;0.47;;;;;;;-0.35;100.00;100378.41;4992968;28;20048;-75
2021/01/06 05:38:52;;;;;;;0.60;0.40;;;;;;;-0.35;100.00;100378.41;4985522;28;20111;-75
2021/01/06 05:41:18;;;;;;;0.40;0.40;;;;;;;-0.37;100.00;100377.53;4989836;28;20030;-75
2021/01/06 05:43:49;;;;;;;0.90;0.60;;;;;;;-0.34;100.00;100380.16;4989130;28;20037;-75
2021/01/06 05:46:25;;;;;;;0.73;0.40;;;;;;;-0.39;100.00;100372.31;4983853;28;20038;-75
2021/01/06 05:49:04;;;;;;;0.63;0.43;;;;;;;-0.38;100.00;100368.00;4988675;28;20045;-75
2021/01/06 05:51:34;;;;;;;1.10;0.40;;;;;;;-0.40;100.00;100362.78;4953928;28;20048;-75
2021/01/06 05:54:13;;;;;;;0.43;0.43;;;;;;;-0.38;100.00;100368.00;5006084;28;20038;-75
2021/01/06 05:56:57;;;;;;;0.73;0.60;;;;;;;-0.42;100.00;100361.88;4989084;28;20061;-75
2021/01/06 05:59:35;;;;;;;0.73;0.50;;;;;;;-0.43;100.00;100365.28;4984632;28;20045;-75
2021/01/06 06:02:01;;;;;;;0.83;0.57;;;;;;;-0.42;100.00;100377.44;4986039;28;20049;-75
2021/01/06 06:04:44;;;;;;;0.77;0.50;;;;;;;-0.41;100.00;100370.53;5001114;28;20483;-75
2021/01/06 06:07:13;;;;;;;1.07;0.60;;;;;;;-0.42;100.00;100363.56;4983089;28;20519;-72
2021/01/06 06:09:53;;;;;;;0.50;0.50;;;;;;;-0.42;100.00;100368.75;5002344;28;20045;-73
2021/01/06 06:12:31;;;;;;;0.63;0.43;;;;;;;-0.42;100.00;100360.97;4964448;28;20038;-75
2021/01/06 06:15:33;;;;;;;0.80;0.40;;;;;;;-0.34;100.00;100368.09;5001222;28;20042;-76
2021/01/06 06:18:17;;;;;;;0.70;0.40;;;;;;;-0.43;100.00;100367.88;4987124;28;20061;-75
2021/01/06 06:20:55;;;;;;;1.00;0.50;;;;;;;-0.43;100.00;100370.47;4969186;28;20042;-75
2021/01/06 06:23:49;;;;;;;0.50;0.47;;;;;;;-0.45;100.00;100367.00;5003676;28;20070;-75
2021/01/06 06:26:45;;;;;;;0.63;0.40;;;;;;;-0.44;100.00;100375.66;4995000;28;20137;-75
2021/01/06 06:29:21;;;;;;;0.80;0.60;;;;;;;-0.43;100.00;100380.88;4987398;28;20042;-74
2021/01/06 06:31:52;;;;;;;0.50;0.50;;;;;;;-0.42;100.00;100364.47;4988458;28;20542;-75
2021/01/06 06:34:30;;;;;;;0.57;0.40;;;;;;;-0.43;100.00;100365.28;4989638;28;20113;-75
2021/01/06 06:37:18;;;;;;;0.77;0.60;;;;;;;-0.41;100.00;100367.94;5004373;28;20037;-75
2021/01/06 06:39:47;;;;;;;0.70;0.50;;;;;;;-0.43;100.00;100369.59;4987200;28;20104;-75
2021/01/06 06:42:18;;;;;;;0.43;0.43;;;;;;;-0.46;100.00;100360.06;4988749;28;20042;-75
2021/01/06 06:44:55;;;;;;;0.30;0.20;;;;;;;-0.47;100.00;100366.09;5004590;28;20053;-75
2021/01/06 06:47:28;;;;;;;0.77;0.70;;;;;;;-0.47;100.00;100360.91;4988671;28;20038;-75
2021/01/06 06:50:00;;;;;;;0.90;0.50;;;;;;;-0.46;100.00;100359.19;4977261;28;20096;-75
2021/01/06 06:52:34;;;;;;;0.40;0.37;;;;;;;-0.46;100.00;100362.66;5004203;28;20088;-75
2021/01/06 06:55:32;;;;;;;0.70;0.50;;;;;;;-0.48;100.00;100359.16;4976401;28;20069;-75
2021/01/06 06:58:17;;;;;;;0.50;0.40;;;;;;;-0.49;100.00;100354.81;4991748;28;20038;-75
2021/01/06 07:00:43;;;;;;;1.30;0.50;;;;;;;-0.50;100.00;100357.38;4991640;28;20034;-75
2021/01/06 07:03:22;;;;;;;0.63;0.40;;;;;;;-0.48;100.00;100356.56;4975983;28;20042;-75
2021/01/06 07:05:54;;;;;;;0.77;0.50;;;;;;;-0.51;100.00;100366.00;4990837;28;20121;-75
2021/01/06 07:08:24;;;;;;;0.60;0.50;;;;;;;-0.51;100.00;100368.59;5005314;28;20034;-75
2021/01/06 07:11:14;;;;;;;0.43;0.33;;;;;;;-0.52;100.00;100366.84;4989511;28;20093;-75
2021/01/06 07:13:40;;;;;;;0.87;0.60;;;;;;;-0.52;100.00;100370.31;5006336;28;20034;-75
2021/01/06 07:16:15;;;;;;;1.83;1.70;;;;;;;-0.52;100.00;100365.13;4990481;28;20104;-75
2021/01/06 07:18:44;;;;;;;6.43;3.10;;;;;;;-0.52;100.00;100364.25;4995426;28;20140;-75
2021/01/06 07:21:11;;;;;;;6.63;3.37;;;;;;;-0.53;100.00;100362.50;4981222;28;20046;-75
2021/01/06 07:23:55;;;;;;;14.87;8.63;;;;;;;-0.52;100.00;100359.94;5001247;28;20042;-75
2021/01/06 07:26:24;;;;;;;;;;;;;;;-0.53;100.00;100359.91;5004276;28;20050;-75
2021/01/06 07:28:58;;;;;;;18.53;11.30;;;;;;;-0.52;100.00;100365.13;4975216;28;19925;-75
2021/01/06 07:31:26;;;;;;;22.23;12.35;;;;;;;-0.52;100.00;100365.13;4989639;28;20145;-75
2021/01/06 07:33:55;;;;;;;16.43;10.07;;;;;;;-0.51;100.00;100364.28;4993506;28;20514;-75
2021/01/06 07:36:48;;;;;;;12.27;5.60;;;;;;;-0.49;100.00;100365.19;4997273;28;20041;-75
2021/01/06 07:39:24;;;;;;;11.47;6.60;;;;;;;-0.47;100.00;100370.41;5004220;28;20041;-75
2021/01/06 07:41:51;;;;;;;8.17;4.20;;;;;;;-0.47;100.00;100367.81;4972297;28;20038;-73
2021/01/06 07:44:31;;;;;;;4.90;2.57;;;;;;;-0.45;100.00;100369.59;4990109;28;20460;-73
2021/01/06 07:47:15;;;;;;;3.73;2.27;;;;;;;-0.43;100.00;100374.81;5006684;28;20042;-72
2021/01/06 07:49:47;;;;;;;2.72;1.45;;;;;;;-0.42;100.00;100368.75;5013134;28;20056;-73
2021/01/06 07:52:23;;;;;;;1.93;0.90;;;;;;;-0.38;100.00;100375.78;5008159;28;20110;-72
2021/01/06 07:54:53;;;;;;;1.37;1.00;;;;;;;-0.36;100.00;100377.53;5003454;28;20053;-73
2021/01/06 07:57:48;;;;;;;1.20;0.80;;;;;;;-0.35;100.00;100381.88;4976943;28;20046;-73
2021/01/06 08:00:21;;;;;;;1.10;0.73;;;;;;;-0.32;100.00;100379.38;4987650;28;20038;-73
2021/01/06 08:02:59;;;;;;;1.40;0.90;;;;;;;-0.30;100.00;100379.38;4994214;28;20038;-73
2021/01/06 08:05:30;;;;;;;0.90;0.77;;;;;;;-0.27;100.00;100384.63;4996741;28;20507;-73
2021/01/06 08:08:14;;;;;;;1.00;0.70;;;;;;;-0.25;100.00;100390.75;4980665;28;20073;-73
2021/01/06 08:10:42;;;;;;;0.65;0.65;;;;;;;-0.22;100.00;100382.13;4991000;28;20546;-72
2021/01/06 08:13:13;;;;;;;1.40;0.93;;;;;;;-0.19;100.00;100385.66;4988851;28;20057;-73
2021/01/06 08:15:39;;;;;;;0.83;0.60;;;;;;;-0.14;100.00;100384.03;4990815;28;20045;-73
2021/01/06 08:18:59;;;;;;;0.80;0.80;;;;;;;-0.08;100.00;100378.94;5002660;28;20092;-72
2021/01/06 08:21:45;;;;;;;0.83;0.80;;;;;;;-0.02;100.00;100371.25;4999412;28;20049;-72
2021/01/06 08:24:22;;;;;;;0.60;0.60;;;;;;;0.08;100.00;100371.41;4983134;28;20041;-72
2021/01/06 08:26:50;;;;;;;0.57;0.57;;;;;;;0.18;100.00;100371.59;4999393;28;20046;-72
2021/01/06 08:29:22;;;;;;;0.40;0.40;;;;;;;0.27;100.00;100357.88;4986786;28;20045;-72
2021/01/06 08:31:51;;;;;;;0.50;0.50;;;;;;;0.38;100.00;100363.25;4985757;28;20045;-72
2021/01/06 08:34:26;;;;;;;1.00;0.60;;;;;;;0.50;100.00;100358.22;4984277;28;20140;-72
2021/01/06 08:36:59;;;;;;;0.33;0.33;;;;;;;0.59;100.00;100357.50;4966808;28;20042;-72
2021/01/06 08:39:27;;;;;;;0.40;0.40;;;;;;;0.67;100.00;100355.88;4989136;28;20041;-72
2021/01/06 08:42:06;;;;;;;0.60;0.53;;;;;;;0.81;100.00;100354.38;5004568;28;20117;-72
2021/01/06 08:44:44;;;;;;;0.30;0.30;;;;;;;0.96;100.00;100351.97;4986711;28;20041;-72
2021/01/06 08:47:13;;;;;;;0.87;0.70;;;;;;;1.07;100.00;100366.00;5003627;28;20065;-72
2021/01/06 08:49:42;;;;;;;2.27;2.07;;;;;;;1.14;100.00;100359.16;4988344;28;21056;-73
2021/01/06 08:52:17;;;;;;;1.70;1.10;;;;;;;1.22;100.00;100365.31;4995223;28;20034;-72
2021/01/06 08:54:46;;;;;;;1.93;0.80;;;;;;;1.18;100.00;100360.03;5004074;28;20038;-72
2021/01/06 08:57:28;;;;;;;2.43;1.83;;;;;;;1.23;100.00;100363.59;4986352;28;20045;-72
2021/01/06 08:59:54;;;;;;;3.53;2.50;;;;;;;1.31;100.00;100369.75;4968901;28;20091;-72
2021/01/06 09:02:33;;;;;;;3.73;2.67;;;;;;;1.40;100.00;100372.47;4988281;28;20045;-72
2021/01/06 09:04:59;;;;;;;3.07;1.77;;;;;;;1.45;100.00;100364.72;4985241;28;20066;-72
2021/01/06 09:07:30;;;;;;;2.40;1.70;;;;;;;1.47;100.00;100366.50;4985417;28;20046;-72
2021/01/06 09:10:02;;;;;;;1.60;1.50;;;;;;;1.48;100.00;100367.38;4973798;28;20034;-72
2021/01/06 09:12:57;;;;;;;1.30;0.90;;;;;;;1.47;100.00;100366.50;5000834;28;20391;-72
2021/01/06 09:15:42;;;;;;;0.77;0.60;;;;;;;1.44;100.00;100370.81;4999772;28;20042;-72
2021/01/06 09:18:15;;;;;;;1.23;0.70;;;;;;;1.44;100.00;100370.81;5012251;23;20064;-72
2021/01/06 09:21:03;;;;;;;1.37;1.10;;;;;;;1.42;100.00;100368.16;4999749;28;20037;-72
2021/01/06 09:23:30;;;;;;;1.07;0.83;;;;;;;1.40;100.00;100357.72;5017368;28;20044;-73
2021/01/06 09:25:58;;;;;;;1.57;0.67;;;;;;;1.50;100.00;100365.63;4994289;28;20042;-72
2021/01/06 09:28:25;;;;;;;1.40;1.13;;;;;;;1.61;100.00;100364.06;4998620;28;20042;-72
2021/01/06 09:30:51;;;;;;;1.00;0.70;;;;;;;1.66;100.00;100367.56;5014106;28;20440;-72
2021/01/06 09:33:21;;;;;;;0.80;0.70;;;;;;;1.74;100.00;100365.03;4988079;28;20092;-72
2021/01/06 09:35:48;;;;;;;1.87;1.30;;;;;;;1.71;100.00;100358.09;5007250;28;20038;-72
2021/01/06 09:38:21;;;;;;;1.57;1.10;;;;;;;1.64;100.00;100364.06;5002487;28;20033;-72
2021/01/06 09:40:47;;;;;;;1.47;1.07;;;;;;;1.70;100.00;100361.53;5022165;28;20414;-72
2021/01/06 09:43:23;;;;;;;1.73;0.97;;;;;;;1.79;100.00;100352.94;5018990;28;20116;-71
2021/01/06 09:45:50;;;;;;;1.17;0.90;;;;;;;1.89;100.00;100362.59;4997856;28;20156;-72
2021/01/06 09:48:17;;;;;;;1.50;1.10;;;;;;;1.96;100.00;100362.69;5014328;28;20072;-72
2021/01/06 09:50:50;;;;;;;1.40;0.90;;;;;;;2.00;100.00;100358.34;5003705;28;20041;-72
2021/01/06 09:53:20;;;;;;;1.17;1.00;;;;;;;2.02;100.00;100356.66;5017688;28;20688;-73
2021/01/06 09:55:49;;;;;;;1.37;1.00;;;;;;;1.93;100.00;100360.06;4996825;28;20046;-71
2021/01/06 09:58:26;;;;;;;0.93;0.87;;;;;;;1.90;100.00;100359.13;5003179;28;20041;-72
2021/01/06 10:00:58;;;;;;;2.20;1.00;;;;;;;1.76;100.00;100351.16;4983590;28;20077;-72
2021/01/06 10:03:32;;;;;;;2.20;1.17;;;;;;;1.71;100.00;100359.81;5011113;28;20084;-72
2021/01/06 10:06:14;;;;;;;0.80;0.80;;;;;;;1.72;100.00;100353.75;4991337;28;20947;-71
2021/01/06 10:08:48;;;;;;;1.67;1.10;;;;;;;1.69;100.00;100355.47;4995098;28;20437;-72
2021/01/06 10:11:25;;;;;;;;;;;;;;;1.68;100.00;100355.41;4993610;28;20141;-71
2021/01/06 10:14:10;;;;;;;1.77;1.00;;;;;;;1.74;100.00;100352.03;4995540;28;20043;-72
2021/01/06 10:16:44;;;;;;;1.50;1.00;;;;;;;1.79;100.00;100350.34;4994850;28;21709;-72
2021/01/06 10:19:10;;;;;;;1.80;1.20;;;;;;;1.83;100.00;100347.78;5012581;28;20056;-72
2021/01/06 10:21:54;;;;;;;2.40;1.43;;;;;;;1.91;100.00;100342.63;5009278;28;20065;-72
2021/01/06 10:24:48;;;;;;;2.03;1.33;;;;;;;2.04;100.00;100341.91;5006786;28;20065;-72
2021/01/06 10:27:37;;;;;;;1.60;1.13;;;;;;;2.22;100.00;100342.06;4992004;28;20034;-72
2021/01/06 10:30:14;;;;;;;2.47;1.37;;;;;;;2.33;100.00;100336.91;4981955;28;20080;-71
2021/01/06 10:32:45;;;;;;;7.27;5.53;;;;;;;2.18;100.00;100337.66;4995620;28;20691;-72
2021/01/06 10:35:33;;;;;;;5.43;4.50;;;;;;;2.19;100.00;100331.63;5000665;28;20037;-71
2021/01/06 10:38:21;;;;;;;4.27;3.40;;;;;;;2.22;100.00;100330.75;5009845;28;20034;-72
2021/01/06 10:40:49;;;;;;;2.67;1.93;;;;;;;2.07;100.00;100326.28;4994574;28;20069;-71
2021/01/06 10:43:36;;;;;;;2.77;2.10;;;;;;;2.05;100.00;100327.16;4992972;28;20092;-72
2021/01/06 10:46:41;;;;;;;3.50;1.70;;;;;;;2.01;100.00;100330.56;5015483;28;20568;-72
2021/01/06 10:49:19;;;;;;;3.13;1.60;;;;;;;1.94;100.00;100329.66;5014569;28;20626;-71
2021/01/06 10:51:59;;;;;;;3.07;2.10;;;;;;;1.89;100.00;100316.59;5001654;28;20052;-72
2021/01/06 10:54:28;;;;;;;3.03;1.90;;;;;;;1.86;100.00;100323.50;5016453;28;20037;-72
2021/01/06 10:56:55;;;;;;;3.40;2.00;;;;;;;1.78;100.00;100317.34;5010985;28;20095;-71
2021/01/06 10:59:21;;;;;;;3.37;2.07;;;;;;;1.73;100.00;100317.28;4992059;28;20045;-72
2021/01/06 11:02:07;;;;;;;4.50;2.03;;;;;;;1.67;100.00;100310.28;5014882;28;20029;-72
2021/01/06 11:04:35;;;;;;;5.17;2.20;;;;;;;1.66;100.00;100312.88;5019676;28;20107;-71
2021/01/06 11:07:25;;;;;;;3.90;2.13;;;;;;;1.64;100.00;100310.25;5019370;28;20045;-71
2021/01/06 11:10:10;;;;;;;3.70;2.13;;;;;;;1.63;100.00;100308.53;4995646;28;20723;-71
2021/01/06 11:12:57;;;;;;;2.77;1.50;;;;;;;1.64;100.00;100306.78;5013233;28;20041;-71
2021/01/06 11:15:32;;;;;;;3.80;1.83;;;;;;;1.66;100.00;100305.94;4996788;28;20523;-71
2021/01/06 11:18:28;;;;;;;3.77;1.90;;;;;;;1.78;100.00;100293.91;4998819;28;20522;-72
2021/01/06 11:21:14;;;;;;;3.97;2.10;;;;;;;1.84;100.00;100288.72;4999870;28;20065;-71
2021/01/06 11:23:56;;;;;;;4.87;2.60;;;;;;;1.88;100.00;100291.41;5002999;28;20103;-72
2021/01/06 11:26:32;;;;;;;3.47;1.97;;;;;;;1.94;100.00;100286.25;4995734;28;20113;-72
2021/01/06 11:29:16;;;;;;;3.50;1.90;;;;;;;1.95;100.00;100290.59;5010728;28;20039;-71
2021/01/06 11:32:04;;;;;;;5.25;2.58;;;;;;;1.97;100.00;100282.78;5014343;28;21934;-71
2021/01/06 11:34:33;;;;;;;4.07;2.70;;;;;;;1.82;100.00;100283.53;4990539;28;20037;-72
2021/01/06 11:37:01;;;;;;;4.63;2.53;;;;;;;1.79;100.00;100282.63;5012254;28;20052;-72
2021/01/06 11:39:27;;;;;;;5.00;2.73;;;;;;;1.76;100.00;100274.78;4981878;28;20042;-72
2021/01/06 11:42:04;;;;;;;4.07;2.43;;;;;;;1.72;100.00;100275.63;5001194;28;20057;-72
2021/01/06 11:44:39;;;;;;;3.97;2.17;;;;;;;1.67;100.00;100266.00;4990314;28;20048;-72
2021/01/06 11:47:48;;;;;;;4.87;2.70;;;;;;;1.62;100.00;100267.72;4998156;28;20503;-72
2021/01/06 11:50:24;;;;;;;4.73;2.43;;;;;;;1.62;100.00;100262.53;5003453;28;20506;-72
2021/01/06 11:52:50;;;;;;;4.37;2.43;;;;;;;1.63;100.00;100261.66;5020220;28;20561;-72
2021/01/06 11:55:34;;;;;;;5.07;2.40;;;;;;;1.64;100.00;100260.78;4989657;28;20034;-72